Time;durP1;ratioP1;P1;durP2;ratioP2;P2;SDS_P1;SDS_P2;PMS_P1;PMS_P2;Temp;Humidity;BMP_temperature;BMP_pressure;BME280_temperature;BME280_humidity;BME280_pressure;Samples;Min_cycle;Max_cycle;Signal;HPM_P1;HPM_P2
2021/06/16 00:00:13;;;;;;;3.77;3.47;;;27.40;43.30;;;;;;5030194;28;20531;-52
2021/06/16 00:02:39;;;;;;;5.83;3.83;;;27.30;43.70;;;;;;5031927;28;20204;-51
2021/06/16 00:05:06;;;;;;;3.70;3.40;;;27.10;43.80;;;;;;5034749;28;20447;-53
2021/06/16 00:07:32;;;;;;;3.53;3.33;;;27.10;44.00;;;;;;5033811;28;20924;-51
2021/06/16 00:09:58;;;;;;;2.90;2.70;;;27.10;44.10;;;;;;5020051;28;20634;-52
2021/06/16 00:12:25;;;;;;;5.00;3.23;;;27.10;44.10;;;;;;5033432;28;20605;-52
2021/06/16 00:14:52;;;;;;;3.30;3.00;;;27.10;43.90;;;;;;5032229;28;20264;-52
2021/06/16 00:17:17;;;;;;;3.43;3.13;;;27.10;43.80;;;;;;5033881;28;20478;-48
2021/06/16 00:19:43;;;;;;;3.90;3.40;;;27.10;43.80;;;;;;5023791;28;20530;-49
2021/06/16 00:22:09;;;;;;;6.67;3.17;;;27.20;43.80;;;;;;5032842;28;20203;-52
2021/06/16 00:24:34;;;;;;;3.70;3.40;;;27.20;43.80;;;;;;5031525;28;20200;-52
2021/06/16 00:27:00;;;;;;;4.00;3.27;;;27.30;43.80;;;;;;5033746;28;20220;-52
2021/06/16 00:29:26;;;;;;;6.33;4.03;;;27.30;43.70;;;;;;5032678;28;20240;-49
2021/06/16 00:31:52;;;;;;;3.77;3.47;;;27.30;43.80;;;;;;5025668;28;20437;-48
2021/06/16 00:34:18;;;;;;;3.50;3.17;;;27.20;43.90;;;;;;5028274;28;20202;-52
2021/06/16 00:36:43;;;;;;;3.43;3.13;;;27.30;43.90;;;;;;5030740;28;20225;-52
2021/06/16 00:39:10;;;;;;;4.23;3.80;;;27.30;44.00;;;;;;5027423;28;20578;-49
2021/06/16 00:41:36;;;;;;;4.73;3.30;;;27.30;43.90;;;;;;5030263;28;20251;-52
2021/06/16 00:44:02;;;;;;;3.80;3.50;;;27.30;44.30;;;;;;5032751;28;20436;-50
2021/06/16 00:46:28;;;;;;;4.10;3.70;;;27.40;43.70;;;;;;5033878;28;20427;-50
2021/06/16 00:48:54;;;;;;;4.10;3.70;;;27.30;43.80;;;;;;5017270;28;20917;-49
2021/06/16 00:51:19;;;;;;;3.83;3.37;;;27.30;43.90;;;;;;5034102;28;20231;-52
2021/06/16 00:53:45;;;;;;;3.57;3.27;;;27.30;43.90;;;;;;5032070;28;20189;-50
2021/06/16 00:56:11;;;;;;;3.43;3.23;;;27.30;44.10;;;;;;5031471;28;20202;-49
2021/06/16 00:58:37;;;;;;;4.80;3.43;;;27.30;44.10;;;;;;5033388;28;20193;-53
2021/06/16 01:01:25;;;;;;;4.20;3.80;;;27.30;44.10;;;;;;5031673;28;20255;-51
2021/06/16 01:04:04;;;;;;;4.27;3.87;;;27.30;44.10;;;;;;5032449;28;20482;-49
2021/06/16 01:06:41;;;;;;;3.70;3.40;;;27.30;44.20;;;;;;5031881;28;20452;-48
2021/06/16 01:09:11;;;;;;;3.73;3.43;;;27.30;44.10;;;;;;5032382;28;20471;-49
2021/06/16 01:11:50;;;;;;;4.60;4.20;;;27.30;44.20;;;;;;5033679;28;20468;-49
2021/06/16 01:14:20;;;;;;;3.80;3.60;;;27.30;44.30;;;;;;5032021;28;20467;-51
2021/06/16 01:16:54;;;;;;;5.47;3.63;;;27.30;44.30;;;;;;5027948;28;20437;-49
2021/06/16 01:19:25;;;;;;;4.83;3.73;;;27.30;44.30;;;;;;5028577;28;20447;-49
2021/06/16 01:21:59;;;;;;;3.83;3.53;;;27.30;44.30;;;;;;5032223;28;20436;-52
2021/06/16 01:24:29;;;;;;;4.10;3.70;;;27.30;44.40;;;;;;5027867;28;20431;-49
2021/06/16 01:26:55;;;;;;;3.50;3.20;;;27.30;44.30;;;;;;5033273;28;20535;-49
2021/06/16 01:29:31;;;;;;;3.67;3.37;;;27.30;44.30;;;;;;5028520;28;21232;-48
2021/06/16 01:31:58;;;;;;;4.53;3.60;;;27.30;44.30;;;;;;5027126;28;20439;-51
2021/06/16 01:34:25;;;;;;;3.97;3.60;;;27.20;44.40;;;;;;5031767;28;20977;-50
2021/06/16 01:36:53;;;;;;;3.73;3.43;;;27.20;44.40;;;;;;5028535;28;20798;-50
2021/06/16 01:39:23;;;;;;;4.07;3.60;;;27.20;44.40;;;;;;5022463;28;20441;-49
2021/06/16 01:41:52;;;;;;;3.57;3.37;;;27.20;44.40;;;;;;5025025;28;20457;-49
2021/06/16 01:44:19;;;;;;;3.67;3.37;;;27.20;44.40;;;;;;5026316;28;20806;-49
2021/06/16 01:46:52;;;;;;;3.83;3.40;;;27.20;44.60;;;;;;5031197;28;20439;-49
2021/06/16 01:49:21;;;;;;;4.33;3.90;;;27.10;44.50;;;;;;5030906;28;20472;-49
2021/06/16 01:51:49;;;;;;;3.73;3.50;;;27.10;44.60;;;;;;5031722;28;20427;-49
2021/06/16 01:54:16;;;;;;;4.00;3.70;;;27.10;44.60;;;;;;5028677;28;20527;-49
2021/06/16 01:56:44;;;;;;;4.63;3.37;;;27.00;45.20;;;;;;5027080;28;20436;-51
2021/06/16 01:59:11;;;;;;;4.50;4.07;;;26.80;45.60;;;;;;5031428;28;20494;-49
2021/06/16 02:01:38;;;;;;;4.10;3.70;;;26.60;45.90;;;;;;5029199;28;20598;-52
2021/06/16 02:04:04;;;;;;;4.00;3.63;;;26.60;45.90;;;;;;5023324;28;20484;-50
2021/06/16 02:06:41;;;;;;;4.37;3.87;;;26.50;45.90;;;;;;5026204;28;20436;-53
2021/06/16 02:09:09;;;;;;;4.03;3.33;;;26.60;45.80;;;;;;5029181;28;20891;-52
2021/06/16 02:11:38;;;;;;;4.77;4.37;;;26.60;45.70;;;;;;5030388;28;20464;-51
2021/06/16 02:14:07;;;;;;;3.67;3.33;;;26.60;45.80;;;;;;5030685;28;20451;-48
2021/06/16 02:16:40;;;;;;;3.40;3.17;;;26.60;45.70;;;;;;5030985;28;20424;-53
2021/06/16 02:19:20;;;;;;;4.30;3.23;;;26.60;45.70;;;;;;5026729;28;21284;-53
2021/06/16 02:21:46;;;;;;;4.00;3.70;;;26.70;45.70;;;;;;5028090;28;20467;-51
2021/06/16 02:24:12;;;;;;;4.83;3.90;;;26.60;45.90;;;;;;5029314;28;20460;-52
2021/06/16 02:26:38;;;;;;;4.50;4.10;;;26.60;45.80;;;;;;5032210;28;20198;-53
2021/06/16 02:29:11;;;;;;;3.43;3.13;;;26.60;46.30;;;;;;5030807;28;20486;-53
2021/06/16 02:31:39;;;;;;;5.70;3.40;;;26.60;45.80;;;;;;5020679;28;20782;-53
2021/06/16 02:34:05;;;;;;;4.90;3.70;;;26.60;45.60;;;;;;5029408;28;20447;-52
2021/06/16 02:36:35;;;;;;;4.30;3.20;;;26.70;45.60;;;;;;5031850;28;20482;-53
2021/06/16 02:39:05;;;;;;;4.43;3.90;;;26.70;45.40;;;;;;5026104;28;20995;-52
2021/06/16 02:41:32;;;;;;;5.03;3.63;;;26.70;45.60;;;;;;5031593;28;20497;-50
2021/06/16 02:43:58;;;;;;;7.13;3.47;;;26.60;45.50;;;;;;5023549;28;20507;-53
2021/06/16 02:46:24;;;;;;;6.63;3.83;;;26.60;45.60;;;;;;5029049;28;20428;-52
2021/06/16 02:48:52;;;;;;;8.57;4.17;;;26.60;45.80;;;;;;5017309;28;20453;-52
2021/06/16 02:51:18;;;;;;;5.93;3.73;;;26.50;45.80;;;;;;5028548;28;20463;-53
2021/06/16 02:53:45;;;;;;;3.50;3.20;;;26.50;45.80;;;;;;5021182;28;20429;-53
2021/06/16 02:56:11;;;;;;;3.80;3.50;;;26.50;46.00;;;;;;5026795;28;20447;-53
2021/06/16 02:58:40;;;;;;;3.97;3.53;;;26.50;45.80;;;;;;5017356;28;20525;-55
2021/06/16 03:01:09;;;;;;;3.50;3.20;;;26.50;45.80;;;;;;5029559;28;20495;-52
2021/06/16 03:03:35;;;;;;;5.07;3.40;;;26.50;46.00;;;;;;5030329;28;20494;-52
2021/06/16 03:06:03;;;;;;;4.77;3.97;;;26.40;46.30;;;;;;5024532;28;20475;-52
2021/06/16 03:08:32;;;;;;;4.00;3.50;;;26.30;46.30;;;;;;5030095;28;20463;-53
2021/06/16 03:10:59;;;;;;;9.23;3.33;;;26.20;46.30;;;;;;5021423;28;20575;-51
2021/06/16 03:13:27;;;;;;;3.80;3.40;;;26.20;46.50;;;;;;5030924;28;20507;-53
2021/06/16 03:15:54;;;;;;;4.00;3.70;;;26.10;46.40;;;;;;5029100;28;20467;-52
2021/06/16 03:18:21;;;;;;;5.77;3.43;;;26.10;46.60;;;;;;5031029;28;20433;-52
2021/06/16 03:20:48;;;;;;;7.33;4.13;;;26.00;46.80;;;;;;5030648;28;20854;-52
2021/06/16 03:23:14;;;;;;;4.57;3.50;;;25.90;47.00;;;;;;5028373;28;20460;-50
2021/06/16 03:25:42;;;;;;;4.97;4.23;;;25.80;47.30;;;;;;5030328;28;20427;-53
2021/06/16 03:28:08;;;;;;;4.00;3.70;;;25.70;47.50;;;;;;5020407;28;20487;-52
2021/06/16 03:30:34;;;;;;;3.80;3.40;;;25.70;47.60;;;;;;5030574;28;20546;-52
2021/06/16 03:33:00;;;;;;;5.13;4.00;;;25.60;47.50;;;;;;5026714;28;20444;-54
2021/06/16 03:35:26;;;;;;;6.63;4.20;;;25.60;47.60;;;;;;5025417;28;20452;-51
2021/06/16 03:37:54;;;;;;;3.90;3.60;;;25.60;47.70;;;;;;5017789;28;20847;-52
2021/06/16 03:40:21;;;;;;;4.03;3.43;;;25.60;47.90;;;;;;5029145;28;20432;-52
2021/06/16 03:42:48;;;;;;;4.77;3.73;;;25.50;48.00;;;;;;5019167;28;20435;-51
2021/06/16 03:45:15;;;;;;;4.40;3.67;;;25.50;48.00;;;;;;5029560;28;20471;-49
2021/06/16 03:47:44;;;;;;;4.17;3.87;;;25.60;47.90;;;;;;5025863;28;21145;-52
2021/06/16 03:50:15;;;;;;;4.50;3.83;;;25.40;48.60;;;;;;5028504;28;20480;-49
2021/06/16 03:52:42;;;;;;;4.30;3.53;;;25.30;48.60;;;;;;5027450;28;20424;-53
2021/06/16 03:55:10;;;;;;;4.40;4.10;;;25.40;48.40;;;;;;5027615;28;20507;-51
2021/06/16 03:57:37;;;;;;;6.53;4.20;;;25.40;48.20;;;;;;5026404;28;20424;-51
2021/06/16 04:00:05;;;;;;;5.53;4.03;;;25.50;48.20;;;;;;5027939;28;20440;-52
2021/06/16 04:02:31;;;;;;;4.30;4.00;;;25.50;48.30;;;;;;5027995;28;20428;-52
2021/06/16 04:05:01;;;;;;;6.63;4.53;;;25.50;48.10;;;;;;5029876;28;20524;-53
2021/06/16 04:07:28;;;;;;;4.33;4.03;;;25.50;48.10;;;;;;5027195;28;20841;-53
2021/06/16 04:09:55;;;;;;;5.57;4.93;;;25.50;48.10;;;;;;5028609;28;20484;-52
2021/06/16 04:12:21;;;;;;;4.07;3.70;;;25.50;48.10;;;;;;5028119;28;20538;-49
2021/06/16 04:14:49;;;;;;;4.40;3.53;;;25.50;48.20;;;;;;5026291;28;20440;-52
2021/06/16 04:17:22;;;;;;;4.03;3.73;;;25.50;48.30;;;;;;5030513;28;20467;-49
2021/06/16 04:19:49;;;;;;;6.30;3.87;;;25.50;48.20;;;;;;5029611;28;20436;-51
2021/06/16 04:22:15;;;;;;;6.40;4.80;;;25.40;48.40;;;;;;5029752;28;20471;-50
2021/06/16 04:24:41;;;;;;;4.73;4.03;;;25.40;48.40;;;;;;5028029;28;20448;-52
2021/06/16 04:27:08;;;;;;;3.90;3.50;;;25.40;48.40;;;;;;5028498;28;20440;-52
2021/06/16 04:29:34;;;;;;;4.17;3.87;;;25.50;48.40;;;;;;5021839;28;20541;-49
2021/06/16 04:32:01;;;;;;;4.63;4.17;;;25.50;48.30;;;;;;5029916;28;20424;-49
2021/06/16 04:34:27;;;;;;;5.20;4.23;;;25.50;48.10;;;;;;5030112;28;20463;-52
2021/06/16 04:36:53;;;;;;;4.93;4.27;;;25.60;48.10;;;;;;5033306;28;20935;-51
2021/06/16 04:39:18;;;;;;;5.10;3.80;;;25.60;47.90;;;;;;5032738;28;20466;-49
2021/06/16 04:41:45;;;;;;;4.27;3.87;;;25.60;48.00;;;;;;5032371;28;20228;-53
2021/06/16 04:44:11;;;;;;;4.43;4.00;;;25.60;47.90;;;;;;5032603;28;20683;-50
2021/06/16 04:46:36;;;;;;;7.37;4.27;;;25.70;47.90;;;;;;5033309;28;20989;-49
2021/06/16 04:49:02;;;;;;;4.83;3.60;;;25.70;47.90;;;;;;5028730;28;20425;-52
2021/06/16 04:51:28;;;;;;;3.70;3.40;;;25.70;47.80;;;;;;5019349;28;20274;-52
2021/06/16 04:53:54;;;;;;;7.50;3.80;;;25.80;47.80;;;;;;5028968;28;20247;-52
2021/06/16 04:56:20;;;;;;;4.20;3.80;;;25.80;47.70;;;;;;5033186;28;20261;-49
2021/06/16 04:58:45;;;;;;;4.07;3.77;;;25.90;47.60;;;;;;5032396;28;20189;-52
2021/06/16 05:01:11;;;;;;;4.23;3.90;;;25.90;47.50;;;;;;5029602;28;20194;-52
2021/06/16 05:03:37;;;;;;;4.37;4.07;;;26.00;47.50;;;;;;5027091;28;20569;-53
2021/06/16 05:06:04;;;;;;;4.00;3.70;;;26.00;47.30;;;;;;5026726;28;20264;-52
2021/06/16 05:08:29;;;;;;;5.77;3.77;;;26.10;47.30;;;;;;5032749;28;20193;-52
2021/06/16 05:10:55;;;;;;;4.27;3.87;;;26.10;47.20;;;;;;5032373;28;20546;-54
2021/06/16 05:13:24;;;;;;;4.33;3.90;;;26.10;47.50;;;;;;5032062;28;20229;-52
2021/06/16 05:15:54;;;;;;;3.97;3.57;;;26.10;47.40;;;;;;5033324;28;20232;-51
2021/06/16 05:18:21;;;;;;;5.30;4.70;;;26.10;47.30;;;;;;5032516;28;20428;-52
2021/06/16 05:20:47;;;;;;;8.43;4.40;;;26.20;47.30;;;;;;5028772;28;20928;-50
2021/06/16 05:23:12;;;;;;;5.50;4.60;;;26.20;47.40;;;;;;5028540;28;20465;-52
2021/06/16 05:25:41;;;;;;;6.00;4.10;;;26.10;47.50;;;;;;5030354;28;20915;-50
2021/06/16 05:28:07;;;;;;;5.70;4.43;;;26.10;48.00;;;;;;5027151;28;20197;-49
2021/06/16 05:30:33;;;;;;;4.33;3.97;;;26.20;48.00;;;;;;5029546;28;20558;-49
2021/06/16 05:32:59;;;;;;;7.50;5.03;;;26.20;47.80;;;;;;5028550;28;20512;-52
2021/06/16 05:35:24;;;;;;;4.73;4.33;;;26.30;47.50;;;;;;5022470;28;20945;-48
2021/06/16 05:37:50;;;;;;;6.50;3.70;;;26.20;47.50;;;;;;5013994;28;20193;-50
2021/06/16 05:40:16;;;;;;;4.70;4.30;;;25.60;48.90;;;;;;5027118;28;20190;-52
2021/06/16 05:42:42;;;;;;;5.93;5.40;;;25.60;48.90;;;;;;5029205;28;20197;-52
2021/06/16 05:45:09;;;;;;;8.17;4.90;;;25.70;48.80;;;;;;5032277;28;20927;-48
2021/06/16 05:47:35;;;;;;;4.37;3.90;;;25.80;48.50;;;;;;5031498;28;20850;-51
2021/06/16 05:50:01;;;;;;;8.07;4.77;;;26.00;48.10;;;;;;5032806;28;20479;-48
2021/06/16 05:52:26;;;;;;;6.00;5.53;;;25.90;48.30;;;;;;5029546;28;20251;-51
2021/06/16 05:54:52;;;;;;;5.30;4.90;;;26.10;48.10;;;;;;5029151;28;20641;-53
2021/06/16 05:57:18;;;;;;;5.23;4.43;;;26.20;47.90;;;;;;5029940;28;20198;-53
2021/06/16 05:59:43;;;;;;;5.90;5.30;;;26.30;48.00;;;;;;5029997;28;20193;-48
2021/06/16 06:02:09;;;;;;;6.67;5.20;;;26.20;48.20;;;;;;5031547;28;20219;-52
2021/06/16 06:04:35;;;;;;;6.00;4.30;;;26.20;48.00;;;;;;5032398;28;20529;-53
2021/06/16 06:07:05;;;;;;;8.47;5.70;;;26.10;48.40;;;;;;5025099;28;20205;-49
2021/06/16 06:09:31;;;;;;;4.93;4.43;;;26.10;48.60;;;;;;5026018;28;20673;-49
2021/06/16 06:11:56;;;;;;;7.77;4.73;;;26.10;48.70;;;;;;5026868;28;20494;-49
2021/06/16 06:14:22;;;;;;;7.93;4.80;;;25.80;49.10;;;;;;5028158;28;20475;-53
2021/06/16 06:16:48;;;;;;;6.03;5.43;;;25.90;48.90;;;;;;5032866;28;20276;-49
2021/06/16 06:19:13;;;;;;;10.00;5.50;;;26.10;49.10;;;;;;5029974;28;20603;-49
2021/06/16 06:21:39;;;;;;;5.67;4.90;;;26.00;49.10;;;;;;5018314;28;20247;-49
2021/06/16 06:24:05;;;;;;;6.80;5.10;;;26.10;49.10;;;;;;5012476;28;20201;-52
2021/06/16 06:26:32;;;;;;;5.50;5.00;;;26.20;48.80;;;;;;5013148;28;20273;-52
2021/06/16 06:28:57;;;;;;;5.83;5.07;;;26.30;48.30;;;;;;5023576;28;20923;-48
2021/06/16 06:31:23;;;;;;;5.50;4.60;;;26.30;48.10;;;;;;5032479;28;20511;-52
2021/06/16 06:33:49;;;;;;;5.17;4.77;;;26.40;48.00;;;;;;5031396;28;20274;-52
2021/06/16 06:36:15;;;;;;;5.23;4.83;;;26.30;48.30;;;;;;5032644;28;20193;-48
2021/06/16 06:38:40;;;;;;;4.93;4.43;;;26.40;48.40;;;;;;5032427;28;20201;-49
2021/06/16 06:41:06;;;;;;;8.10;5.50;;;26.50;48.40;;;;;;5012374;28;20448;-52
2021/06/16 06:43:32;;;;;;;6.03;5.27;;;26.60;48.40;;;;;;5016943;28;20229;-51
2021/06/16 06:45:57;;;;;;;5.17;4.70;;;26.50;47.80;;;;;;5010646;28;20205;-52
2021/06/16 06:48:23;;;;;;;5.27;4.77;;;26.50;48.00;;;;;;5023139;28;20197;-49
2021/06/16 06:50:49;;;;;;;4.97;4.57;;;26.60;47.90;;;;;;5031751;28;20750;-52
2021/06/16 06:53:15;;;;;;;6.13;4.60;;;26.80;47.90;;;;;;5018786;28;20202;-52
2021/06/16 06:55:42;;;;;;;5.70;4.70;;;26.80;47.90;;;;;;5012001;28;20560;-53
2021/06/16 06:58:09;;;;;;;6.33;4.40;;;26.90;47.70;;;;;;5016405;28;20434;-52
2021/06/16 07:00:34;;;;;;;7.67;5.07;;;27.00;47.80;;;;;;5030878;28;20957;-49
2021/06/16 07:03:00;;;;;;;6.53;4.97;;;27.20;47.80;;;;;;5031764;28;20424;-48
2021/06/16 07:05:26;;;;;;;5.80;3.97;;;27.10;48.10;;;;;;5031720;28;20228;-52
2021/06/16 07:07:52;;;;;;;5.53;4.33;;;27.10;47.30;;;;;;5032182;28;20197;-52
2021/06/16 07:10:18;;;;;;;5.50;4.60;;;27.30;47.00;;;;;;5031087;28;20233;-48
2021/06/16 07:12:44;;;;;;;5.83;4.63;;;27.20;46.70;;;;;;5029549;28;21013;-52
2021/06/16 07:15:10;;;;;;;6.83;5.30;;;27.30;46.80;;;;;;5023828;28;20453;-52
2021/06/16 07:17:36;;;;;;;8.67;5.77;;;27.40;46.50;;;;;;5028164;28;20478;-49
2021/06/16 07:20:05;;;;;;;7.43;5.53;;;27.70;46.20;;;;;;5024513;28;20445;-49
2021/06/16 07:22:30;;;;;;;5.60;4.70;;;27.90;45.30;;;;;;5018242;28;20630;-49
2021/06/16 07:24:56;;;;;;;5.37;4.83;;;28.00;44.80;;;;;;5024490;28;20445;-49
2021/06/16 07:27:22;;;;;;;7.70;5.33;;;28.00;44.30;;;;;;5012120;28;20229;-49
2021/06/16 07:29:48;;;;;;;4.83;4.43;;;28.10;44.30;;;;;;5012958;28;20638;-53
2021/06/16 07:32:16;;;;;;;4.40;4.10;;;28.30;44.20;;;;;;5031286;28;20197;-52
2021/06/16 07:34:41;;;;;;;4.07;3.67;;;28.40;42.70;;;;;;5030965;28;20603;-50
2021/06/16 07:37:07;;;;;;;5.50;3.93;;;28.40;42.60;;;;;;5030318;28;20465;-48
2021/06/16 07:39:33;;;;;;;5.10;3.33;;;28.40;42.60;;;;;;5029330;28;20563;-49
2021/06/16 07:41:58;;;;;;;6.50;3.97;;;28.40;42.40;;;;;;5030648;28;20188;-50
2021/06/16 07:44:24;;;;;;;5.37;4.10;;;28.70;42.30;;;;;;5010301;28;20655;-49
2021/06/16 07:46:49;;;;;;;4.57;4.17;;;28.80;41.60;;;;;;5011736;28;20202;-53
2021/06/16 07:49:15;;;;;;;3.50;3.20;;;28.80;40.70;;;;;;5011193;28;20312;-53
2021/06/16 07:51:41;;;;;;;8.33;3.97;;;28.90;41.70;;;;;;5023443;28;20214;-52
2021/06/16 07:54:11;;;;;;;3.53;3.23;;;29.10;41.40;;;;;;5030636;28;20217;-49
2021/06/16 07:56:38;;;;;;;5.60;3.23;;;29.30;41.10;;;;;;5031268;28;20656;-49
2021/06/16 07:59:03;;;;;;;4.60;3.90;;;29.30;41.30;;;;;;5030994;28;21225;-49
2021/06/16 08:01:29;;;;;;;4.10;3.23;;;29.60;41.10;;;;;;5030808;28;20421;-53
2021/06/16 08:03:55;;;;;;;6.37;4.50;;;29.30;41.40;;;;;;5030419;28;20204;-49
2021/06/16 08:06:21;;;;;;;4.90;3.80;;;29.40;40.90;;;;;;5016434;28;20205;-49
2021/06/16 08:08:47;;;;;;;5.30;3.80;;;29.30;41.10;;;;;;5028437;28;20669;-52
2021/06/16 08:11:14;;;;;;;5.60;3.83;;;29.50;40.80;;;;;;5033537;28;20479;-52
2021/06/16 08:13:39;;;;;;;4.50;4.00;;;29.90;40.50;;;;;;5027494;28;20194;-53
2021/06/16 08:16:05;;;;;;;3.50;3.20;;;30.20;40.90;;;;;;5027217;28;20820;-53
2021/06/16 08:18:31;;;;;;;4.10;3.70;;;30.40;40.80;;;;;;5035349;28;20201;-52
2021/06/16 08:20:57;;;;;;;4.50;3.63;;;30.70;40.50;;;;;;5027054;28;20185;-52
2021/06/16 08:23:23;;;;;;;6.07;3.20;;;30.90;39.80;;;;;;5014787;28;20659;-53
2021/06/16 08:25:48;;;;;;;4.03;3.70;;;31.00;39.30;;;;;;5024137;28;20636;-53
2021/06/16 08:28:14;;;;;;;4.00;3.70;;;31.20;39.10;;;;;;5035081;28;20190;-53
2021/06/16 08:30:39;;;;;;;3.90;3.70;;;31.30;39.10;;;;;;5033051;28;20263;-50
2021/06/16 08:33:05;;;;;;;4.73;4.33;;;31.40;38.40;;;;;;5025619;28;21077;-53
2021/06/16 08:35:31;;;;;;;4.13;3.70;;;31.50;39.20;;;;;;5014745;28;20190;-53
2021/06/16 08:37:56;;;;;;;4.43;4.00;;;31.60;37.80;;;;;;5015223;28;20382;-52
2021/06/16 08:40:22;;;;;;;4.37;3.97;;;31.70;37.80;;;;;;5014252;28;20198;-53
2021/06/16 08:42:49;;;;;;;4.00;3.60;;;31.80;38.00;;;;;;5021535;28;20672;-52
2021/06/16 08:45:16;;;;;;;4.83;4.17;;;31.90;37.90;;;;;;5034164;28;20435;-53
2021/06/16 08:47:45;;;;;;;4.83;3.90;;;32.00;37.10;;;;;;5034701;28;20854;-52
2021/06/16 08:50:12;;;;;;;4.40;3.93;;;31.90;36.90;;;;;;5033993;28;20490;-49
2021/06/16 08:52:38;;;;;;;4.60;3.50;;;31.70;36.70;;;;;;5034500;28;20455;-52
2021/06/16 08:55:09;;;;;;;4.43;4.03;;;31.90;36.70;;;;;;5018755;28;20429;-52
2021/06/16 08:57:35;;;;;;;9.07;3.73;;;32.10;36.20;;;;;;5014769;28;20427;-53
2021/06/16 09:00:03;;;;;;;4.10;3.80;;;32.40;37.10;;;;;;5012485;28;20826;-50
2021/06/16 09:02:29;;;;;;;5.13;3.70;;;32.60;37.30;;;;;;5019950;28;20503;-53
2021/06/16 09:04:54;;;;;;;4.07;3.67;;;32.70;37.10;;;;;;5020169;28;20436;-49
2021/06/16 09:07:26;;;;;;;5.73;3.80;;;32.90;36.20;;;;;;5014622;28;20669;-52
2021/06/16 09:10:24;;;;;;;3.73;3.43;;;32.80;35.80;;;;;;5027112;28;20590;-49
2021/06/16 09:13:07;;;;;;;3.80;3.50;;;33.10;36.60;;;;;;4996541;28;20891;-51
2021/06/16 09:15:33;;;;;;;3.90;3.50;;;33.20;36.20;;;;;;5023677;28;20522;-53
2021/06/16 09:18:07;;;;;;;4.63;4.20;;;33.40;35.90;;;;;;5017711;28;20465;-53
2021/06/16 09:20:43;;;;;;;5.10;3.70;;;33.40;34.90;;;;;;5022292;28;20465;-50
2021/06/16 09:23:20;;;;;;;5.17;3.90;;;33.50;34.50;;;;;;5012477;28;20443;-53
2021/06/16 09:26:07;;;;;;;5.27;3.80;;;33.60;34.90;;;;;;5020028;28;20440;-53
2021/06/16 09:28:37;;;;;;;4.63;4.17;;;33.70;33.90;;;;;;5033962;28;20459;-53
2021/06/16 09:31:03;;;;;;;4.00;3.60;;;33.80;33.40;;;;;;5033321;28;20502;-53
2021/06/16 09:33:28;;;;;;;4.67;3.70;;;33.90;33.40;;;;;;5033381;28;20919;-52
2021/06/16 09:35:54;;;;;;;7.80;3.93;;;34.10;32.70;;;;;;5032750;28;20617;-50
2021/06/16 09:38:31;;;;;;;3.73;3.43;;;34.20;32.60;;;;;;5024140;28;20589;-51
2021/06/16 09:40:58;;;;;;;4.93;3.30;;;34.10;32.50;;;;;;5029893;28;20196;-53
2021/06/16 09:43:27;;;;;;;4.07;3.70;;;34.40;32.50;;;;;;5032242;28;20444;-51
2021/06/16 09:45:59;;;;;;;4.77;3.30;;;34.60;32.50;;;;;;5018102;28;20430;-49
2021/06/16 09:48:45;;;;;;;4.47;3.93;;;34.30;31.80;;;;;;5022819;28;20486;-52
2021/06/16 09:51:22;;;;;;;3.67;3.23;;;34.60;31.50;;;;;;5028100;28;20483;-51
2021/06/16 09:54:11;;;;;;;4.80;4.20;;;35.00;32.20;;;;;;5026370;28;20451;-51
2021/06/16 09:56:39;;;;;;;4.23;3.47;;;35.10;32.10;;;;;;5025461;28;20539;-52
2021/06/16 09:59:05;;;;;;;4.40;3.53;;;35.10;31.50;;;;;;5028735;28;20444;-52
2021/06/16 10:01:51;;;;;;;4.47;3.57;;;35.30;31.20;;;;;;5029942;28;20946;-51
2021/06/16 10:04:37;;;;;;;4.20;3.40;;;35.40;30.40;;;;;;5026487;28;20544;-52
2021/06/16 10:07:20;;;;;;;4.10;3.70;;;35.70;30.70;;;;;;5027731;28;20505;-51
2021/06/16 10:09:50;;;;;;;4.70;4.30;;;35.60;30.00;;;;;;5030701;28;20834;-50
2021/06/16 10:12:16;;;;;;;3.93;3.30;;;35.60;30.90;;;;;;5031117;28;20563;-49
2021/06/16 10:14:42;;;;;;;5.40;3.60;;;35.90;30.20;;;;;;5029492;28;20480;-52
2021/06/16 10:17:09;;;;;;;5.07;3.20;;;35.80;29.60;;;;;;5025894;28;20451;-52
2021/06/16 10:19:35;;;;;;;4.53;3.10;;;35.90;28.40;;;;;;5031182;28;20498;-52
2021/06/16 10:22:04;;;;;;;4.30;3.40;;;36.20;28.10;;;;;;5029824;28;20431;-53
2021/06/16 10:24:30;;;;;;;3.50;3.20;;;36.50;28.40;;;;;;5026768;28;20433;-49
2021/06/16 10:26:59;;;;;;;3.93;3.63;;;36.70;28.50;;;;;;5032005;28;20482;-52
2021/06/16 10:29:31;;;;;;;4.17;3.63;;;36.70;29.40;;;;;;5028898;28;20225;-52
2021/06/16 10:32:03;;;;;;;3.30;2.83;;;36.70;28.50;;;;;;5029026;28;20490;-49
2021/06/16 10:34:50;;;;;;;4.60;3.73;;;36.80;28.50;;;;;;5030250;28;20467;-52
2021/06/16 10:37:38;;;;;;;3.70;3.40;;;36.80;28.70;;;;;;5028263;28;20443;-49
2021/06/16 10:40:16;;;;;;;4.13;3.73;;;37.00;28.40;;;;;;5025302;28;20958;-49
2021/06/16 10:43:04;;;;;;;3.63;2.80;;;36.60;28.00;;;;;;5030169;28;20529;-52
2021/06/16 10:45:35;;;;;;;3.20;2.90;;;36.80;28.30;;;;;;5027349;28;20444;-52
2021/06/16 10:48:06;;;;;;;3.50;3.20;;;36.90;27.60;;;;;;5026578;28;20945;-51
2021/06/16 10:50:47;;;;;;;5.00;3.10;;;37.20;27.60;;;;;;5024928;28;20487;-52
2021/06/16 10:53:23;;;;;;;3.50;3.23;;;37.40;26.70;;;;;;5021641;28;20435;-51
2021/06/16 10:58:25;;;;;;;3.93;3.53;;;37.70;27.10;;;;;;5031108;28;20530;-52
2021/06/16 11:01:11;;;;;;;6.03;3.33;;;37.50;26.00;;;;;;5030347;28;20939;-52
2021/06/16 11:03:46;;;;;;;4.30;3.10;;;37.50;26.40;;;;;;5032009;28;20497;-53
2021/06/16 11:06:33;;;;;;;4.50;3.77;;;37.80;26.70;;;;;;5030678;28;20481;-53
2021/06/16 11:09:05;;;;;;;3.33;3.03;;;37.70;26.00;;;;;;5026769;28;20447;-50
2021/06/16 11:11:49;;;;;;;4.83;3.50;;;37.90;27.20;;;;;;5027744;28;20479;-53
2021/06/16 11:14:32;;;;;;;3.53;3.23;;;38.10;26.20;;;;;;5022548;28;20434;-52
2021/06/16 11:17:09;;;;;;;3.83;3.53;;;37.70;26.20;;;;;;5016524;28;20496;-52
2021/06/16 11:19:34;;;;;;;4.07;3.67;;;37.90;26.10;;;;;;5025706;28;20462;-52
2021/06/16 11:22:24;;;;;;;5.30;3.37;;;38.10;25.50;;;;;;5028466;28;20471;-51
2021/06/16 11:25:11;;;;;;;3.70;3.40;;;38.20;25.90;;;;;;5021816;28;20207;-52
2021/06/16 11:28:03;;;;;;;3.90;3.50;;;38.50;26.10;;;;;;5023474;28;20447;-52
2021/06/16 11:30:53;;;;;;;5.00;3.27;;;38.70;26.00;;;;;;5030128;28;20587;-52
2021/06/16 11:33:18;;;;;;;3.93;3.60;;;38.70;26.00;;;;;;5018914;28;20439;-53
2021/06/16 11:35:55;;;;;;;3.97;3.63;;;38.90;25.30;;;;;;5028785;28;20795;-52
2021/06/16 11:38:20;;;;;;;3.63;3.33;;;38.90;25.30;;;;;;5025654;28;20204;-52
2021/06/16 11:41:18;;;;;;;3.80;3.50;;;38.80;25.30;;;;;;5022034;28;20450;-52
2021/06/16 11:43:44;;;;;;;5.90;3.63;;;38.70;25.20;;;;;;5025159;28;20204;-53
2021/06/16 11:46:12;;;;;;;4.47;4.07;;;38.80;25.50;;;;;;5017409;28;20535;-52
2021/06/16 11:48:39;;;;;;;4.07;3.50;;;38.90;25.20;;;;;;5029546;28;20291;-52
2021/06/16 11:51:07;;;;;;;3.93;3.53;;;38.80;25.10;;;;;;5024183;28;20486;-52
2021/06/16 11:53:35;;;;;;;4.10;3.73;;;38.50;25.00;;;;;;5026903;28;20522;-52
2021/06/16 11:56:07;;;;;;;4.13;3.60;;;38.60;24.90;;;;;;5030057;28;20431;-52
2021/06/16 11:58:41;;;;;;;3.80;3.50;;;38.70;25.20;;;;;;5029747;28;20464;-49
2021/06/16 12:01:12;;;;;;;4.00;3.60;;;38.70;25.50;;;;;;5029615;28;20477;-53
2021/06/16 12:03:56;;;;;;;4.30;4.00;;;38.70;26.00;;;;;;5025952;28;20853;-52
2021/06/16 12:06:22;;;;;;;4.23;3.80;;;38.60;25.10;;;;;;5030322;28;20450;-49
2021/06/16 12:08:58;;;;;;;3.63;3.40;;;38.00;25.10;;;;;;5022981;28;20439;-50
2021/06/16 12:11:33;;;;;;;3.50;3.20;;;38.30;25.50;;;;;;5026534;28;20933;-52
2021/06/16 12:14:02;;;;;;;5.10;3.03;;;38.70;25.30;;;;;;5029760;28;20435;-50
2021/06/16 12:16:32;;;;;;;5.90;3.67;;;38.60;25.00;;;;;;5028188;28;20954;-50
2021/06/16 12:19:15;;;;;;;5.10;3.87;;;38.90;24.60;;;;;;5028819;28;20448;-51
2021/06/16 12:21:57;;;;;;;3.10;2.90;;;38.80;24.40;;;;;;5030099;28;20943;-52
2021/06/16 12:24:28;;;;;;;4.70;3.53;;;38.70;24.60;;;;;;5021318;28;20443;-52
2021/06/16 12:27:00;;;;;;;3.90;3.60;;;39.10;25.00;;;;;;5027056;28;20597;-49
2021/06/16 12:29:27;;;;;;;4.73;4.23;;;39.50;25.10;;;;;;5024237;28;20973;-50
2021/06/16 12:31:54;;;;;;;6.00;4.10;;;39.80;24.70;;;;;;5028408;28;20923;-50
2021/06/16 12:34:33;;;;;;;3.80;3.50;;;39.90;24.20;;;;;;5018804;28;20435;-49
2021/06/16 12:37:15;;;;;;;4.10;3.47;;;40.00;24.70;;;;;;5019371;28;20447;-52
2021/06/16 12:39:59;;;;;;;3.93;3.67;;;39.80;24.20;;;;;;5009063;28;20443;-53
2021/06/16 12:42:46;;;;;;;4.10;3.80;;;40.10;23.60;;;;;;5022581;28;20439;-48
2021/06/16 12:45:36;;;;;;;3.97;3.67;;;39.20;24.10;;;;;;5028020;28;20516;-52
2021/06/16 12:48:11;;;;;;;7.20;4.23;;;38.40;24.90;;;;;;5028009;28;20581;-50
2021/06/16 12:50:38;;;;;;;4.47;4.07;;;38.80;24.50;;;;;;5029768;28;20493;-49
2021/06/16 12:53:17;;;;;;;4.30;3.90;;;39.20;24.10;;;;;;5023552;28;20465;-56
2021/06/16 12:55:51;;;;;;;12.43;3.53;;;39.50;23.70;;;;;;5032503;28;20450;-49
2021/06/16 12:58:17;;;;;;;4.43;3.00;;;39.30;23.20;;;;;;5018261;28;20459;-51
2021/06/16 13:00:44;;;;;;;4.13;3.73;;;38.90;23.80;;;;;;5020237;28;20526;-51